sensor_id;sensor_type;location;lat;lon;timestamp;temperature;humidity
15690;DHT22;7945;48.816;11.506;2022-07-30T00:00:10;22.20;99.50
15690;DHT22;7945;48.816;11.506;2022-07-30T00:02:38;22.10;99.40
15690;DHT22;7945;48.816;11.506;2022-07-30T00:05:08;22.10;99.60
15690;DHT22;7945;48.816;11.506;2022-07-30T00:07:36;22.10;99.70
15690;DHT22;7945;48.816;11.506;2022-07-30T00:10:03;22.10;99.80
15690;DHT22;7945;48.816;11.506;2022-07-30T00:12:31;22.10;99.70
15690;DHT22;7945;48.816;11.506;2022-07-30T00:14:58;22.10;99.80
15690;DHT22;7945;48.816;11.506;2022-07-30T00:17:26;22.10;99.90
15690;DHT22;7945;48.816;11.506;2022-07-30T00:19:53;22.10;99.90
15690;DHT22;7945;48.816;11.506;2022-07-30T00:22:22;22.10;99.90
15690;DHT22;7945;48.816;11.506;2022-07-30T00:24:49;22.10;99.90
15690;DHT22;7945;48.816;11.506;2022-07-30T00:27:16;22.10;99.80
15690;DHT22;7945;48.816;11.506;2022-07-30T00:29:43;22.10;99.90
15690;DHT22;7945;48.816;11.506;2022-07-30T00:32:10;22.10;99.80
15690;DHT22;7945;48.816;11.506;2022-07-30T00:34:37;22.00;99.90
15690;DHT22;7945;48.816;11.506;2022-07-30T00:37:03;22.00;99.90
15690;DHT22;7945;48.816;11.506;2022-07-30T00:39:32;22.00;99.90
15690;DHT22;7945;48.816;11.506;2022-07-30T00:42:01;22.00;99.90
15690;DHT22;7945;48.816;11.506;2022-07-30T00:44:29;22.00;99.80
15690;DHT22;7945;48.816;11.506;2022-07-30T00:46:56;21.90;99.90
15690;DHT22;7945;48.816;11.506;2022-07-30T00:49:23;21.90;99.90
15690;DHT22;7945;48.816;11.506;2022-07-30T00:51:51;21.90;99.90
15690;DHT22;7945;48.816;11.506;2022-07-30T00:54:18;21.80;99.90
15690;DHT22;7945;48.816;11.506;2022-07-30T00:56:47;21.80;99.90
15690;DHT22;7945;48.816;11.506;2022-07-30T00:59:14;21.80;99.90
15690;DHT22;7945;48.816;11.506;2022-07-30T01:01:41;21.80;99.90
15690;DHT22;7945;48.816;11.506;2022-07-30T01:04:08;21.80;99.90
15690;DHT22;7945;48.816;11.506;2022-07-30T01:06:37;21.80;99.90
15690;DHT22;7945;48.816;11.506;2022-07-30T01:09:04;21.70;99.90
15690;DHT22;7945;48.816;11.506;2022-07-30T01:11:35;21.70;99.90
15690;DHT22;7945;48.816;11.506;2022-07-30T01:14:05;21.70;99.90
15690;DHT22;7945;48.816;11.506;2022-07-30T01:16:33;21.70;99.90
15690;DHT22;7945;48.816;11.506;2022-07-30T01:19:05;21.80;99.90
15690;DHT22;7945;48.816;11.506;2022-07-30T01:24:40;21.80;99.90
15690;DHT22;7945;48.816;11.506;2022-07-30T01:27:11;21.80;99.90
15690;DHT22;7945;48.816;11.506;2022-07-30T01:29:40;21.80;99.90
15690;DHT22;7945;48.816;11.506;2022-07-30T01:32:08;21.80;99.90
15690;DHT22;7945;48.816;11.506;2022-07-30T01:34:38;21.80;99.90
15690;DHT22;7945;48.816;11.506;2022-07-30T01:37:07;21.80;99.90
15690;DHT22;7945;48.816;11.506;2022-07-30T01:39:36;21.80;99.90
15690;DHT22;7945;48.816;11.506;2022-07-30T01:42:05;21.80;99.90
15690;DHT22;7945;48.816;11.506;2022-07-30T01:44:36;21.80;99.90
15690;DHT22;7945;48.816;11.506;2022-07-30T01:47:05;21.80;99.90
15690;DHT22;7945;48.816;11.506;2022-07-30T01:49:36;21.80;99.90
15690;DHT22;7945;48.816;11.506;2022-07-30T01:52:04;21.80;99.90
15690;DHT22;7945;48.816;11.506;2022-07-30T01:54:34;21.80;99.90
15690;DHT22;7945;48.816;11.506;2022-07-30T01:57:03;21.80;99.90
15690;DHT22;7945;48.816;11.506;2022-07-30T01:59:35;21.70;99.90
15690;DHT22;7945;48.816;11.506;2022-07-30T02:02:03;21.60;99.90
15690;DHT22;7945;48.816;11.506;2022-07-30T02:04:30;21.50;99.90
15690;DHT22;7945;48.816;11.506;2022-07-30T02:07:02;21.40;99.90
15690;DHT22;7945;48.816;11.506;2022-07-30T02:09:34;21.40;99.90
15690;DHT22;7945;48.816;11.506;2022-07-30T02:12:03;21.40;99.90
15690;DHT22;7945;48.816;11.506;2022-07-30T02:14:53;21.50;99.90
15690;DHT22;7945;48.816;11.506;2022-07-30T02:17:26;21.40;99.90
15690;DHT22;7945;48.816;11.506;2022-07-30T02:19:55;21.30;99.90
15690;DHT22;7945;48.816;11.506;2022-07-30T02:22:24;21.30;99.90
15690;DHT22;7945;48.816;11.506;2022-07-30T02:24:55;21.30;99.90
15690;DHT22;7945;48.816;11.506;2022-07-30T02:27:26;21.30;99.90
15690;DHT22;7945;48.816;11.506;2022-07-30T02:29:58;21.30;99.90
15690;DHT22;7945;48.816;11.506;2022-07-30T02:32:29;21.30;99.90
15690;DHT22;7945;48.816;11.506;2022-07-30T02:35:00;21.30;99.90
15690;DHT22;7945;48.816;11.506;2022-07-30T02:37:31;21.30;99.90
15690;DHT22;7945;48.816;11.506;2022-07-30T02:39:59;21.20;99.90
15690;DHT22;7945;48.816;11.506;2022-07-30T02:42:28;21.20;99.90
15690;DHT22;7945;48.816;11.506;2022-07-30T02:44:57;21.20;99.90
15690;DHT22;7945;48.816;11.506;2022-07-30T02:47:26;21.20;99.90
15690;DHT22;7945;48.816;11.506;2022-07-30T02:49:54;21.30;99.90
15690;DHT22;7945;48.816;11.506;2022-07-30T02:52:24;21.30;99.90
15690;DHT22;7945;48.816;11.506;2022-07-30T02:54:55;21.40;99.90
15690;DHT22;7945;48.816;11.506;2022-07-30T02:57:23;21.40;99.90
15690;DHT22;7945;48.816;11.506;2022-07-30T02:59:52;21.30;99.90
15690;DHT22;7945;48.816;11.506;2022-07-30T03:02:23;21.30;99.90
15690;DHT22;7945;48.816;11.506;2022-07-30T03:04:52;21.30;99.90
15690;DHT22;7945;48.816;11.506;2022-07-30T03:07:21;21.20;99.90
15690;DHT22;7945;48.816;11.506;2022-07-30T03:09:49;21.20;99.90
15690;DHT22;7945;48.816;11.506;2022-07-30T03:12:19;21.20;99.90
15690;DHT22;7945;48.816;11.506;2022-07-30T03:14:47;21.20;99.90
15690;DHT22;7945;48.816;11.506;2022-07-30T03:17:15;21.20;99.90
15690;DHT22;7945;48.816;11.506;2022-07-30T03:19:45;21.20;99.90
15690;DHT22;7945;48.816;11.506;2022-07-30T03:22:16;21.20;99.90
15690;DHT22;7945;48.816;11.506;2022-07-30T03:24:44;21.30;99.90
15690;DHT22;7945;48.816;11.506;2022-07-30T03:27:13;21.30;99.90
15690;DHT22;7945;48.816;11.506;2022-07-30T03:29:43;21.20;99.90
15690;DHT22;7945;48.816;11.506;2022-07-30T03:32:12;21.20;99.90
15690;DHT22;7945;48.816;11.506;2022-07-30T03:34:40;21.30;99.90
15690;DHT22;7945;48.816;11.506;2022-07-30T03:37:09;21.30;99.90
15690;DHT22;7945;48.816;11.506;2022-07-30T03:39:38;21.30;99.90
15690;DHT22;7945;48.816;11.506;2022-07-30T03:42:07;21.30;99.90
15690;DHT22;7945;48.816;11.506;2022-07-30T03:44:35;21.30;99.90
15690;DHT22;7945;48.816;11.506;2022-07-30T03:47:04;21.30;99.90
15690;DHT22;7945;48.816;11.506;2022-07-30T03:49:32;21.30;99.90
15690;DHT22;7945;48.816;11.506;2022-07-30T03:52:00;21.30;99.90
15690;DHT22;7945;48.816;11.506;2022-07-30T03:54:31;21.20;99.90
15690;DHT22;7945;48.816;11.506;2022-07-30T03:56:59;21.30;99.90
15690;DHT22;7945;48.816;11.506;2022-07-30T03:59:27;21.30;99.90
15690;DHT22;7945;48.816;11.506;2022-07-30T04:01:59;21.20;99.90
15690;DHT22;7945;48.816;11.506;2022-07-30T04:04:27;21.20;99.90
15690;DHT22;7945;48.816;11.506;2022-07-30T04:06:55;21.20;99.90
15690;DHT22;7945;48.816;11.506;2022-07-30T04:09:22;21.20;99.90
15690;DHT22;7945;48.816;11.506;2022-07-30T04:11:50;21.10;99.90
15690;DHT22;7945;48.816;11.506;2022-07-30T04:14:17;21.10;99.90
15690;DHT22;7945;48.816;11.506;2022-07-30T04:16:48;21.00;99.90
15690;DHT22;7945;48.816;11.506;2022-07-30T04:19:20;21.00;99.90
15690;DHT22;7945;48.816;11.506;2022-07-30T04:21:49;21.00;99.90
15690;DHT22;7945;48.816;11.506;2022-07-30T04:24:19;20.90;99.90
15690;DHT22;7945;48.816;11.506;2022-07-30T04:26:46;20.90;99.90
15690;DHT22;7945;48.816;11.506;2022-07-30T04:29:17;20.90;99.90
15690;DHT22;7945;48.816;11.506;2022-07-30T04:31:45;20.80;99.90
15690;DHT22;7945;48.816;11.506;2022-07-30T04:34:12;20.80;99.90
15690;DHT22;7945;48.816;11.506;2022-07-30T04:36:41;20.90;99.90
15690;DHT22;7945;48.816;11.506;2022-07-30T04:39:08;20.90;99.90
15690;DHT22;7945;48.816;11.506;2022-07-30T04:41:36;20.90;99.90
15690;DHT22;7945;48.816;11.506;2022-07-30T04:44:03;21.00;99.90
15690;DHT22;7945;48.816;11.506;2022-07-30T04:46:31;21.00;99.90
15690;DHT22;7945;48.816;11.506;2022-07-30T04:48:58;21.00;99.90
15690;DHT22;7945;48.816;11.506;2022-07-30T04:51:28;21.10;99.90
15690;DHT22;7945;48.816;11.506;2022-07-30T04:53:58;21.10;99.90
15690;DHT22;7945;48.816;11.506;2022-07-30T04:56:27;21.10;99.90
15690;DHT22;7945;48.816;11.506;2022-07-30T04:58:56;21.10;99.90
15690;DHT22;7945;48.816;11.506;2022-07-30T05:01:26;21.10;99.90
15690;DHT22;7945;48.816;11.506;2022-07-30T05:03:57;21.00;99.90
15690;DHT22;7945;48.816;11.506;2022-07-30T05:06:25;21.00;99.90
15690;DHT22;7945;48.816;11.506;2022-07-30T05:08:53;21.10;99.90
15690;DHT22;7945;48.816;11.506;2022-07-30T05:11:21;21.10;99.90
15690;DHT22;7945;48.816;11.506;2022-07-30T05:13:48;21.20;99.90
15690;DHT22;7945;48.816;11.506;2022-07-30T05:16:15;21.50;99.90
15690;DHT22;7945;48.816;11.506;2022-07-30T05:18:42;21.70;99.90
15690;DHT22;7945;48.816;11.506;2022-07-30T05:21:11;21.90;99.70
15690;DHT22;7945;48.816;11.506;2022-07-30T05:23:39;22.00;99.40
15690;DHT22;7945;48.816;11.506;2022-07-30T05:26:06;22.20;99.10
15690;DHT22;7945;48.816;11.506;2022-07-30T05:28:34;22.30;98.70
15690;DHT22;7945;48.816;11.506;2022-07-30T05:31:02;22.20;98.80
15690;DHT22;7945;48.816;11.506;2022-07-30T05:33:29;22.20;98.80
15690;DHT22;7945;48.816;11.506;2022-07-30T05:35:57;22.30;98.70
15690;DHT22;7945;48.816;11.506;2022-07-30T05:38:26;22.30;98.50
15690;DHT22;7945;48.816;11.506;2022-07-30T05:40:54;22.30;98.60
15690;DHT22;7945;48.816;11.506;2022-07-30T05:43:21;22.70;98.30
15690;DHT22;7945;48.816;11.506;2022-07-30T05:45:48;23.30;97.40
15690;DHT22;7945;48.816;11.506;2022-07-30T05:48:16;23.90;96.50
15690;DHT22;7945;48.816;11.506;2022-07-30T05:50:43;24.70;95.50
15690;DHT22;7945;48.816;11.506;2022-07-30T05:53:10;25.10;94.20
15690;DHT22;7945;48.816;11.506;2022-07-30T05:55:39;25.40;93.90
15690;DHT22;7945;48.816;11.506;2022-07-30T05:58:07;25.90;93.20
15690;DHT22;7945;48.816;11.506;2022-07-30T06:00:34;25.80;92.90
15690;DHT22;7945;48.816;11.506;2022-07-30T06:03:01;26.00;92.60
15690;DHT22;7945;48.816;11.506;2022-07-30T06:05:29;26.00;92.50
15690;DHT22;7945;48.816;11.506;2022-07-30T06:07:57;25.90;92.50
15690;DHT22;7945;48.816;11.506;2022-07-30T06:10:25;25.70;92.60
15690;DHT22;7945;48.816;11.506;2022-07-30T06:14:38;25.60;92.60
15690;DHT22;7945;48.816;11.506;2022-07-30T06:17:05;25.60;92.80
15690;DHT22;7945;48.816;11.506;2022-07-30T06:19:33;25.60;92.90
15690;DHT22;7945;48.816;11.506;2022-07-30T06:22:00;25.60;92.10
15690;DHT22;7945;48.816;11.506;2022-07-30T06:24:27;25.30;92.40
15690;DHT22;7945;48.816;11.506;2022-07-30T06:26:54;25.20;92.30
15690;DHT22;7945;48.816;11.506;2022-07-30T06:29:22;25.10;92.50
15690;DHT22;7945;48.816;11.506;2022-07-30T06:31:51;25.00;92.60
15690;DHT22;7945;48.816;11.506;2022-07-30T06:34:18;25.00;93.00
15690;DHT22;7945;48.816;11.506;2022-07-30T06:36:46;24.90;93.50
15690;DHT22;7945;48.816;11.506;2022-07-30T06:39:12;24.80;93.40
15690;DHT22;7945;48.816;11.506;2022-07-30T06:41:39;24.80;93.70
15690;DHT22;7945;48.816;11.506;2022-07-30T06:44:06;24.80;93.30
15690;DHT22;7945;48.816;11.506;2022-07-30T06:46:33;24.70;92.80
15690;DHT22;7945;48.816;11.506;2022-07-30T06:49:03;24.60;93.30
15690;DHT22;7945;48.816;11.506;2022-07-30T06:51:30;24.70;93.60
15690;DHT22;7945;48.816;11.506;2022-07-30T06:53:57;24.60;93.50
15690;DHT22;7945;48.816;11.506;2022-07-30T06:56:24;24.60;93.20
15690;DHT22;7945;48.816;11.506;2022-07-30T06:58:51;24.40;93.40
15690;DHT22;7945;48.816;11.506;2022-07-30T07:01:18;24.30;93.50
15690;DHT22;7945;48.816;11.506;2022-07-30T07:03:46;24.20;92.60
15690;DHT22;7945;48.816;11.506;2022-07-30T07:06:14;24.10;93.00
15690;DHT22;7945;48.816;11.506;2022-07-30T07:08:41;24.10;93.60
15690;DHT22;7945;48.816;11.506;2022-07-30T07:11:08;24.10;93.20
15690;DHT22;7945;48.816;11.506;2022-07-30T07:13:35;24.10;93.20
15690;DHT22;7945;48.816;11.506;2022-07-30T07:16:03;24.10;93.10
15690;DHT22;7945;48.816;11.506;2022-07-30T07:18:30;24.10;93.20
15690;DHT22;7945;48.816;11.506;2022-07-30T07:20:57;24.00;93.10
15690;DHT22;7945;48.816;11.506;2022-07-30T07:23:25;24.10;93.10
15690;DHT22;7945;48.816;11.506;2022-07-30T07:25:52;24.00;93.30
15690;DHT22;7945;48.816;11.506;2022-07-30T07:28:19;24.10;93.40
15690;DHT22;7945;48.816;11.506;2022-07-30T07:30:46;24.10;93.20
15690;DHT22;7945;48.816;11.506;2022-07-30T07:33:13;24.20;92.90
15690;DHT22;7945;48.816;11.506;2022-07-30T07:35:40;24.10;92.80
15690;DHT22;7945;48.816;11.506;2022-07-30T07:38:07;24.10;93.00
15690;DHT22;7945;48.816;11.506;2022-07-30T07:40:36;24.10;92.90
15690;DHT22;7945;48.816;11.506;2022-07-30T07:43:03;24.20;93.20
15690;DHT22;7945;48.816;11.506;2022-07-30T07:45:30;24.20;93.10
15690;DHT22;7945;48.816;11.506;2022-07-30T07:47:58;24.20;92.90
15690;DHT22;7945;48.816;11.506;2022-07-30T07:50:25;24.10;92.80
15690;DHT22;7945;48.816;11.506;2022-07-30T07:52:52;24.20;92.70
15690;DHT22;7945;48.816;11.506;2022-07-30T07:55:19;24.10;92.80
15690;DHT22;7945;48.816;11.506;2022-07-30T07:57:47;24.00;93.00
15690;DHT22;7945;48.816;11.506;2022-07-30T08:00:16;24.10;93.00
15690;DHT22;7945;48.816;11.506;2022-07-30T08:02:43;24.20;92.90
15690;DHT22;7945;48.816;11.506;2022-07-30T08:05:11;24.20;92.70
15690;DHT22;7945;48.816;11.506;2022-07-30T08:07:38;24.20;92.70
15690;DHT22;7945;48.816;11.506;2022-07-30T08:10:06;24.30;92.60
15690;DHT22;7945;48.816;11.506;2022-07-30T08:12:34;24.40;92.30
15690;DHT22;7945;48.816;11.506;2022-07-30T08:15:03;24.40;91.80
15690;DHT22;7945;48.816;11.506;2022-07-30T08:17:31;24.40;92.00
15690;DHT22;7945;48.816;11.506;2022-07-30T08:19:59;24.40;92.00
15690;DHT22;7945;48.816;11.506;2022-07-30T08:22:27;24.30;92.00
15690;DHT22;7945;48.816;11.506;2022-07-30T08:24:54;24.20;92.10
15690;DHT22;7945;48.816;11.506;2022-07-30T08:27:22;24.30;92.30
15690;DHT22;7945;48.816;11.506;2022-07-30T08:29:49;24.30;92.10
15690;DHT22;7945;48.816;11.506;2022-07-30T08:32:18;24.20;91.80
15690;DHT22;7945;48.816;11.506;2022-07-30T08:34:45;24.20;91.90
15690;DHT22;7945;48.816;11.506;2022-07-30T08:37:13;24.30;91.60
15690;DHT22;7945;48.816;11.506;2022-07-30T08:39:41;24.30;91.50
15690;DHT22;7945;48.816;11.506;2022-07-30T08:42:08;24.30;91.40
15690;DHT22;7945;48.816;11.506;2022-07-30T08:44:36;24.40;91.70
15690;DHT22;7945;48.816;11.506;2022-07-30T08:47:05;24.40;90.80
15690;DHT22;7945;48.816;11.506;2022-07-30T08:49:35;24.40;91.20
15690;DHT22;7945;48.816;11.506;2022-07-30T08:52:04;24.40;91.10
15690;DHT22;7945;48.816;11.506;2022-07-30T08:54:33;24.30;91.20
15690;DHT22;7945;48.816;11.506;2022-07-30T08:57:01;24.20;91.10
15690;DHT22;7945;48.816;11.506;2022-07-30T08:59:28;24.20;91.60
15690;DHT22;7945;48.816;11.506;2022-07-30T09:01:57;24.30;91.70
15690;DHT22;7945;48.816;11.506;2022-07-30T09:04:24;24.30;91.60
15690;DHT22;7945;48.816;11.506;2022-07-30T09:06:52;24.40;91.50
15690;DHT22;7945;48.816;11.506;2022-07-30T09:09:22;24.50;91.40
15690;DHT22;7945;48.816;11.506;2022-07-30T09:11:49;24.60;91.30
15690;DHT22;7945;48.816;11.506;2022-07-30T09:14:16;24.70;91.30
15690;DHT22;7945;48.816;11.506;2022-07-30T09:16:43;24.70;90.90
15690;DHT22;7945;48.816;11.506;2022-07-30T09:19:13;24.70;90.70
15690;DHT22;7945;48.816;11.506;2022-07-30T09:21:40;24.80;90.90
15690;DHT22;7945;48.816;11.506;2022-07-30T09:24:10;24.90;90.70
15690;DHT22;7945;48.816;11.506;2022-07-30T09:26:55;24.80;90.40
15690;DHT22;7945;48.816;11.506;2022-07-30T09:29:24;24.80;90.50
15690;DHT22;7945;48.816;11.506;2022-07-30T09:32:00;24.60;90.60
15690;DHT22;7945;48.816;11.506;2022-07-30T09:34:29;24.70;90.80
15690;DHT22;7945;48.816;11.506;2022-07-30T09:36:57;24.90;90.50
15690;DHT22;7945;48.816;11.506;2022-07-30T09:39:30;25.00;90.10
15690;DHT22;7945;48.816;11.506;2022-07-30T09:41:57;25.10;90.20
15690;DHT22;7945;48.816;11.506;2022-07-30T09:44:25;25.20;89.70
15690;DHT22;7945;48.816;11.506;2022-07-30T09:46:52;25.30;89.30
15690;DHT22;7945;48.816;11.506;2022-07-30T09:49:21;25.40;87.30
15690;DHT22;7945;48.816;11.506;2022-07-30T09:51:48;25.50;87.50
15690;DHT22;7945;48.816;11.506;2022-07-30T09:54:15;25.40;88.20
15690;DHT22;7945;48.816;11.506;2022-07-30T09:56:44;25.60;86.40
15690;DHT22;7945;48.816;11.506;2022-07-30T09:59:28;25.60;85.70
15690;DHT22;7945;48.816;11.506;2022-07-30T10:01:56;25.70;86.00
15690;DHT22;7945;48.816;11.506;2022-07-30T10:04:24;25.70;84.40
15690;DHT22;7945;48.816;11.506;2022-07-30T10:06:51;25.60;84.50
15690;DHT22;7945;48.816;11.506;2022-07-30T10:09:27;25.50;83.90
15690;DHT22;7945;48.816;11.506;2022-07-30T10:11:56;25.40;83.00
15690;DHT22;7945;48.816;11.506;2022-07-30T10:14:24;25.30;82.70
15690;DHT22;7945;48.816;11.506;2022-07-30T10:16:54;25.30;80.40
15690;DHT22;7945;48.816;11.506;2022-07-30T10:19:22;25.40;80.50
15690;DHT22;7945;48.816;11.506;2022-07-30T10:21:50;25.60;79.20
15690;DHT22;7945;48.816;11.506;2022-07-30T10:24:22;25.90;77.40
15690;DHT22;7945;48.816;11.506;2022-07-30T10:26:50;26.20;75.20
15690;DHT22;7945;48.816;11.506;2022-07-30T10:29:19;26.50;75.70
15690;DHT22;7945;48.816;11.506;2022-07-30T10:31:47;26.80;73.40
15690;DHT22;7945;48.816;11.506;2022-07-30T10:34:16;26.90;69.70
15690;DHT22;7945;48.816;11.506;2022-07-30T10:36:46;26.80;71.30
15690;DHT22;7945;48.816;11.506;2022-07-30T10:39:17;26.70;71.70
15690;DHT22;7945;48.816;11.506;2022-07-30T10:41:59;26.40;71.20
15690;DHT22;7945;48.816;11.506;2022-07-30T10:44:59;26.30;71.60
15690;DHT22;7945;48.816;11.506;2022-07-30T10:47:28;26.40;69.90
15690;DHT22;7945;48.816;11.506;2022-07-30T10:50:06;26.40;69.60
15690;DHT22;7945;48.816;11.506;2022-07-30T10:52:45;26.30;70.30
15690;DHT22;7945;48.816;11.506;2022-07-30T10:55:15;26.20;69.80
15690;DHT22;7945;48.816;11.506;2022-07-30T10:58:00;26.30;71.30
15690;DHT22;7945;48.816;11.506;2022-07-30T11:00:30;26.60;67.60
15690;DHT22;7945;48.816;11.506;2022-07-30T11:03:15;26.90;66.40
15690;DHT22;7945;48.816;11.506;2022-07-30T11:05:43;27.00;65.60
15690;DHT22;7945;48.816;11.506;2022-07-30T11:08:30;27.20;66.20
15690;DHT22;7945;48.816;11.506;2022-07-30T11:10:58;27.40;65.00
15690;DHT22;7945;48.816;11.506;2022-07-30T11:13:47;27.20;64.30
15690;DHT22;7945;48.816;11.506;2022-07-30T11:16:16;27.10;65.40
15690;DHT22;7945;48.816;11.506;2022-07-30T11:19:04;26.80;64.90
15690;DHT22;7945;48.816;11.506;2022-07-30T11:21:33;26.60;66.40
15690;DHT22;7945;48.816;11.506;2022-07-30T11:24:01;26.60;66.50
15690;DHT22;7945;48.816;11.506;2022-07-30T11:26:49;26.80;65.00
15690;DHT22;7945;48.816;11.506;2022-07-30T11:29:32;26.90;63.50
15690;DHT22;7945;48.816;11.506;2022-07-30T11:32:26;27.00;63.80
15690;DHT22;7945;48.816;11.506;2022-07-30T11:35:15;27.10;62.70
15690;DHT22;7945;48.816;11.506;2022-07-30T11:37:57;27.20;62.80
15690;DHT22;7945;48.816;11.506;2022-07-30T11:40:25;27.20;63.10
15690;DHT22;7945;48.816;11.506;2022-07-30T11:43:14;27.00;64.70
15690;DHT22;7945;48.816;11.506;2022-07-30T11:45:43;27.10;64.50
15690;DHT22;7945;48.816;11.506;2022-07-30T11:48:16;27.10;62.50
15690;DHT22;7945;48.816;11.506;2022-07-30T11:50:46;27.10;60.50
15690;DHT22;7945;48.816;11.506;2022-07-30T11:53:18;27.40;61.00
15690;DHT22;7945;48.816;11.506;2022-07-30T11:55:50;27.60;61.20
15690;DHT22;7945;48.816;11.506;2022-07-30T11:58:26;27.70;60.70
15690;DHT22;7945;48.816;11.506;2022-07-30T12:00:54;27.80;59.60
15690;DHT22;7945;48.816;11.506;2022-07-30T12:03:24;27.70;59.90
15690;DHT22;7945;48.816;11.506;2022-07-30T12:05:52;27.60;60.60
15690;DHT22;7945;48.816;11.506;2022-07-30T12:08:20;27.50;59.00
15690;DHT22;7945;48.816;11.506;2022-07-30T12:10:57;27.60;59.50
15690;DHT22;7945;48.816;11.506;2022-07-30T12:13:25;27.60;59.60
15690;DHT22;7945;48.816;11.506;2022-07-30T12:15:52;27.60;59.70
15690;DHT22;7945;48.816;11.506;2022-07-30T12:18:25;27.60;60.50
15690;DHT22;7945;48.816;11.506;2022-07-30T12:20:57;27.60;60.50
15690;DHT22;7945;48.816;11.506;2022-07-30T12:23:25;27.50;60.20
15690;DHT22;7945;48.816;11.506;2022-07-30T12:25:52;27.50;60.40
15690;DHT22;7945;48.816;11.506;2022-07-30T12:28:21;27.40;61.10
15690;DHT22;7945;48.816;11.506;2022-07-30T12:30:49;27.30;59.70
15690;DHT22;7945;48.816;11.506;2022-07-30T12:33:17;27.30;59.10
15690;DHT22;7945;48.816;11.506;2022-07-30T12:35:47;27.20;59.10
15690;DHT22;7945;48.816;11.506;2022-07-30T12:38:15;27.30;58.80
15690;DHT22;7945;48.816;11.506;2022-07-30T12:40:52;27.50;58.90
15690;DHT22;7945;48.816;11.506;2022-07-30T12:43:43;27.70;58.00
15690;DHT22;7945;48.816;11.506;2022-07-30T12:46:12;27.90;57.30
15690;DHT22;7945;48.816;11.506;2022-07-30T12:48:51;28.10;57.50
15690;DHT22;7945;48.816;11.506;2022-07-30T12:51:22;28.30;57.10
15690;DHT22;7945;48.816;11.506;2022-07-30T12:53:50;28.40;56.90
15690;DHT22;7945;48.816;11.506;2022-07-30T12:56:19;28.50;57.40
15690;DHT22;7945;48.816;11.506;2022-07-30T12:58:47;28.50;55.90
15690;DHT22;7945;48.816;11.506;2022-07-30T13:01:14;28.40;56.50
15690;DHT22;7945;48.816;11.506;2022-07-30T13:03:41;28.50;57.00
15690;DHT22;7945;48.816;11.506;2022-07-30T13:06:15;28.70;56.70
15690;DHT22;7945;48.816;11.506;2022-07-30T13:08:50;28.80;54.80
15690;DHT22;7945;48.816;11.506;2022-07-30T13:11:19;28.90;53.40
15690;DHT22;7945;48.816;11.506;2022-07-30T13:13:48;28.90;53.70
15690;DHT22;7945;48.816;11.506;2022-07-30T13:16:16;28.90;53.70
15690;DHT22;7945;48.816;11.506;2022-07-30T13:18:44;28.90;53.80
15690;DHT22;7945;48.816;11.506;2022-07-30T13:21:12;28.80;54.00
15690;DHT22;7945;48.816;11.506;2022-07-30T13:23:40;28.80;51.80
15690;DHT22;7945;48.816;11.506;2022-07-30T13:26:10;29.00;52.50
15690;DHT22;7945;48.816;11.506;2022-07-30T13:28:37;28.90;52.10
15690;DHT22;7945;48.816;11.506;2022-07-30T13:31:06;28.60;51.70
15690;DHT22;7945;48.816;11.506;2022-07-30T13:33:34;28.50;51.80
15690;DHT22;7945;48.816;11.506;2022-07-30T13:36:01;28.40;51.00
15690;DHT22;7945;48.816;11.506;2022-07-30T13:38:29;28.30;51.20
15690;DHT22;7945;48.816;11.506;2022-07-30T13:40:57;28.10;53.20
15690;DHT22;7945;48.816;11.506;2022-07-30T13:43:26;28.10;52.60
15690;DHT22;7945;48.816;11.506;2022-07-30T13:45:53;28.10;53.40
15690;DHT22;7945;48.816;11.506;2022-07-30T13:48:21;28.00;53.30
15690;DHT22;7945;48.816;11.506;2022-07-30T13:50:49;28.10;53.10
15690;DHT22;7945;48.816;11.506;2022-07-30T13:53:16;28.10;52.70
15690;DHT22;7945;48.816;11.506;2022-07-30T13:55:43;28.00;53.20
15690;DHT22;7945;48.816;11.506;2022-07-30T13:58:11;27.90;53.00
15690;DHT22;7945;48.816;11.506;2022-07-30T14:00:40;27.80;53.00
15690;DHT22;7945;48.816;11.506;2022-07-30T14:03:09;27.70;53.00
15690;DHT22;7945;48.816;11.506;2022-07-30T14:05:37;27.60;53.20
15690;DHT22;7945;48.816;11.506;2022-07-30T14:08:05;27.60;54.00
15690;DHT22;7945;48.816;11.506;2022-07-30T14:10:33;27.50;53.00
15690;DHT22;7945;48.816;11.506;2022-07-30T14:13:03;27.50;53.50
15690;DHT22;7945;48.816;11.506;2022-07-30T14:15:31;27.50;52.60
15690;DHT22;7945;48.816;11.506;2022-07-30T14:17:59;27.50;53.40
15690;DHT22;7945;48.816;11.506;2022-07-30T14:20:27;27.40;53.60
15690;DHT22;7945;48.816;11.506;2022-07-30T14:22:55;27.40;53.50
15690;DHT22;7945;48.816;11.506;2022-07-30T14:25:22;27.30;53.80
15690;DHT22;7945;48.816;11.506;2022-07-30T14:27:49;27.40;53.70
15690;DHT22;7945;48.816;11.506;2022-07-30T14:30:16;27.30;54.10
15690;DHT22;7945;48.816;11.506;2022-07-30T14:32:44;27.30;54.10
15690;DHT22;7945;48.816;11.506;2022-07-30T14:35:12;27.20;53.80
15690;DHT22;7945;48.816;11.506;2022-07-30T14:37:39;27.10;53.90
15690;DHT22;7945;48.816;11.506;2022-07-30T14:40:08;27.20;54.90
15690;DHT22;7945;48.816;11.506;2022-07-30T14:42:36;27.40;54.10
15690;DHT22;7945;48.816;11.506;2022-07-30T14:45:05;27.50;54.10
15690;DHT22;7945;48.816;11.506;2022-07-30T14:47:32;27.60;54.60
15690;DHT22;7945;48.816;11.506;2022-07-30T14:49:59;27.70;54.40
15690;DHT22;7945;48.816;11.506;2022-07-30T14:52:27;27.80;54.40
15690;DHT22;7945;48.816;11.506;2022-07-30T14:54:55;28.00;54.40
15690;DHT22;7945;48.816;11.506;2022-07-30T14:57:22;28.00;53.60
15690;DHT22;7945;48.816;11.506;2022-07-30T14:59:49;28.00;52.90
15690;DHT22;7945;48.816;11.506;2022-07-30T15:02:16;27.90;52.60
15690;DHT22;7945;48.816;11.506;2022-07-30T15:04:43;27.90;53.10
15690;DHT22;7945;48.816;11.506;2022-07-30T15:07:11;28.00;53.70
15690;DHT22;7945;48.816;11.506;2022-07-30T15:09:39;28.00;53.90
15690;DHT22;7945;48.816;11.506;2022-07-30T15:12:07;27.80;54.00
15690;DHT22;7945;48.816;11.506;2022-07-30T15:14:34;27.70;53.60
15690;DHT22;7945;48.816;11.506;2022-07-30T15:17:01;27.60;53.90
15690;DHT22;7945;48.816;11.506;2022-07-30T15:19:28;27.50;53.80
15690;DHT22;7945;48.816;11.506;2022-07-30T15:21:56;27.40;54.20
15690;DHT22;7945;48.816;11.506;2022-07-30T15:24:23;27.30;54.10
15690;DHT22;7945;48.816;11.506;2022-07-30T15:26:52;27.30;54.40
15690;DHT22;7945;48.816;11.506;2022-07-30T15:29:20;27.20;54.30
15690;DHT22;7945;48.816;11.506;2022-07-30T15:31:49;27.20;54.00
15690;DHT22;7945;48.816;11.506;2022-07-30T15:34:16;27.10;53.30
15690;DHT22;7945;48.816;11.506;2022-07-30T15:36:43;27.00;53.70
15690;DHT22;7945;48.816;11.506;2022-07-30T15:39:10;27.00;54.40
15690;DHT22;7945;48.816;11.506;2022-07-30T15:41:38;27.10;53.90
15690;DHT22;7945;48.816;11.506;2022-07-30T15:44:06;27.10;53.60
15690;DHT22;7945;48.816;11.506;2022-07-30T15:46:33;27.10;53.60